createdAt,value
2019-05-18T00:00:44.406Z,9.74
2019-05-18T00:03:10.317Z,9.74
2019-05-18T00:05:36.258Z,9.71
2019-05-18T00:08:02.384Z,9.74
2019-05-18T00:10:28.465Z,9.75
2019-05-18T00:12:54.964Z,9.83
2019-05-18T00:15:21.414Z,9.90
2019-05-18T00:17:47.404Z,9.90
2019-05-18T00:20:14.024Z,9.88
2019-05-18T00:22:39.938Z,9.86
2019-05-18T00:25:07.106Z,9.76
2019-05-18T00:27:33.215Z,9.44
2019-05-18T00:29:59.271Z,9.19
2019-05-18T00:32:25.408Z,8.90
2019-05-18T00:34:51.368Z,9.07
2019-05-18T00:37:17.679Z,8.99
2019-05-18T00:39:43.620Z,8.82
2019-05-18T00:42:09.639Z,8.72
2019-05-18T00:44:50.463Z,8.90
2019-05-18T00:47:16.669Z,8.97
2019-05-18T00:49:42.802Z,9.09
2019-05-18T00:52:08.702Z,9.28
2019-05-18T00:54:34.758Z,9.23
2019-05-18T00:57:00.769Z,9.37
2019-05-18T00:59:26.776Z,9.37
2019-05-18T01:01:52.836Z,9.14
2019-05-18T01:04:18.924Z,9.38
2019-05-18T01:06:45.977Z,9.18
2019-05-18T01:09:12.057Z,9.23
2019-05-18T01:11:37.957Z,9.10
2019-05-18T01:14:04.373Z,9.12
2019-05-18T01:16:30.376Z,9.14
2019-05-18T01:18:56.460Z,9.07
2019-05-18T01:21:22.580Z,9.01
2019-05-18T01:23:48.644Z,9.01
2019-05-18T01:26:14.891Z,9.02
2019-05-18T01:28:41.223Z,8.92
2019-05-18T01:31:07.228Z,8.98
2019-05-18T01:33:34.295Z,8.97
2019-05-18T01:36:00.259Z,8.93
2019-05-18T01:38:26.219Z,9.01
2019-05-18T01:40:52.413Z,9.00
2019-05-18T01:43:18.667Z,8.87
2019-05-18T01:45:44.616Z,8.68
2019-05-18T01:48:14.139Z,8.31
2019-05-18T01:50:39.597Z,7.99
2019-05-18T01:53:05.502Z,7.69
2019-05-18T01:55:31.538Z,7.40
2019-05-18T01:57:57.451Z,7.51
2019-05-18T02:00:23.739Z,7.55
2019-05-18T02:02:49.650Z,7.07
2019-05-18T02:05:15.691Z,6.60
2019-05-18T02:07:41.606Z,6.44
2019-05-18T02:10:08.528Z,6.67
2019-05-18T02:12:34.646Z,6.98
2019-05-18T02:15:00.591Z,7.48
2019-05-18T02:17:26.498Z,7.79
2019-05-18T02:19:53.077Z,7.88
2019-05-18T02:22:19.097Z,7.89
2019-05-18T02:24:45.178Z,7.97
2019-05-18T02:27:11.109Z,8.05
2019-05-18T02:29:37.140Z,8.10
2019-05-18T02:32:03.263Z,8.16
2019-05-18T02:34:29.336Z,8.13
2019-05-18T02:36:55.226Z,8.16
2019-05-18T02:39:21.493Z,8.23
2019-05-18T02:41:47.660Z,8.34
2019-05-18T02:44:13.601Z,8.32
2019-05-18T02:46:39.543Z,8.35
2019-05-18T02:49:05.603Z,8.30
2019-05-18T02:51:31.510Z,8.13
2019-05-18T02:53:57.793Z,7.68
2019-05-18T02:56:23.836Z,7.52
2019-05-18T02:58:49.876Z,7.69
2019-05-18T03:01:16.054Z,7.78
2019-05-18T03:03:42.034Z,7.77
2019-05-18T03:06:08.061Z,7.88
2019-05-18T03:08:34.293Z,7.99
2019-05-18T03:11:00.222Z,7.73
2019-05-18T03:13:26.394Z,7.36
2019-05-18T03:15:52.543Z,7.25
2019-05-18T03:18:18.978Z,7.06
2019-05-18T03:20:45.207Z,7.36
2019-05-18T03:23:11.226Z,7.48
2019-05-18T03:25:37.136Z,7.50
2019-05-18T03:28:03.466Z,7.41
2019-05-18T03:30:29.520Z,7.51
2019-05-18T03:32:55.465Z,7.35
2019-05-18T03:35:21.448Z,7.44
2019-05-18T03:37:47.489Z,7.53
2019-05-18T03:40:13.535Z,7.57
2019-05-18T03:42:39.436Z,7.32
2019-05-18T03:45:06.929Z,7.12
2019-05-18T03:47:33.939Z,7.37
2019-05-18T03:49:59.849Z,7.45
2019-05-18T03:52:25.819Z,7.48
2019-05-18T03:54:51.823Z,7.44
2019-05-18T03:57:18.023Z,7.36
2019-05-18T03:59:43.971Z,7.30
2019-05-18T04:02:09.917Z,7.07
2019-05-18T04:04:35.957Z,7.26
2019-05-18T04:07:01.862Z,7.62
2019-05-18T04:09:27.828Z,7.87
2019-05-18T04:11:53.795Z,7.96
2019-05-18T04:14:19.759Z,8.00
2019-05-18T04:16:45.785Z,7.93
2019-05-18T04:19:11.864Z,7.98
2019-05-18T04:21:37.852Z,7.89
2019-05-18T04:24:03.815Z,7.87
2019-05-18T04:26:29.724Z,7.55
2019-05-18T04:28:56.682Z,7.68
2019-05-18T04:31:22.571Z,7.91
2019-05-18T04:33:48.523Z,8.45
2019-05-18T04:36:14.429Z,9.23
2019-05-18T04:38:40.386Z,9.85
2019-05-18T04:41:06.451Z,10.23
2019-05-18T04:43:32.522Z,10.65
2019-05-18T04:45:58.445Z,11.34
2019-05-18T04:48:24.575Z,11.69
2019-05-18T04:50:50.478Z,11.19
2019-05-18T04:53:16.531Z,12.59
2019-05-18T04:55:42.451Z,12.75
2019-05-18T04:58:08.399Z,13.12
2019-05-18T05:00:34.488Z,13.47
2019-05-18T05:03:00.439Z,13.52
2019-05-18T05:05:26.387Z,13.73
2019-05-18T05:07:52.327Z,13.71
2019-05-18T05:10:18.275Z,14.06
2019-05-18T05:12:44.315Z,14.57
2019-05-18T05:15:10.687Z,15.00
2019-05-18T05:17:36.604Z,15.34
2019-05-18T05:20:18.329Z,15.66
2019-05-18T05:22:32.270Z,15.82
2019-05-18T05:24:59.319Z,16.06
2019-05-18T05:27:25.228Z,15.51
2019-05-18T05:29:51.165Z,14.94
2019-05-18T05:32:17.081Z,14.67
2019-05-18T05:34:43.073Z,14.70
2019-05-18T05:37:09.441Z,14.85
2019-05-18T05:39:35.546Z,15.06
2019-05-18T05:42:01.608Z,15.50
2019-05-18T05:44:27.679Z,15.20
2019-05-18T05:46:53.588Z,15.08
2019-05-18T05:49:19.536Z,15.31
2019-05-18T05:51:45.625Z,15.31
2019-05-18T05:54:11.599Z,15.49
2019-05-18T05:56:37.505Z,15.80
2019-05-18T05:59:03.508Z,16.35
2019-05-18T06:01:30.455Z,16.94
2019-05-18T06:03:56.444Z,17.56
2019-05-18T06:06:23.131Z,18.28
2019-05-18T06:08:49.167Z,19.16
2019-05-18T06:11:15.118Z,19.53
2019-05-18T06:13:41.059Z,20.01
2019-05-18T06:16:07.228Z,19.28
2019-05-18T06:18:33.238Z,19.07
2019-05-18T06:20:59.137Z,19.45
2019-05-18T06:23:25.055Z,20.10
2019-05-18T06:25:51.053Z,20.71
2019-05-18T06:28:16.971Z,21.24
2019-05-18T06:30:42.953Z,21.23
2019-05-18T06:33:08.964Z,20.79
2019-05-18T06:35:34.921Z,20.80
2019-05-18T06:38:00.969Z,20.44
2019-05-18T06:40:27.047Z,20.53
2019-05-18T06:42:52.969Z,21.63
2019-05-18T06:45:19.223Z,21.79
2019-05-18T06:47:48.264Z,21.24
2019-05-18T06:50:13.717Z,20.91
2019-05-18T06:52:39.835Z,20.93
2019-05-18T06:55:06.186Z,20.83
2019-05-18T06:57:32.895Z,20.78
2019-05-18T07:00:00.132Z,20.91
2019-05-18T07:02:27.165Z,20.72
2019-05-18T07:04:53.137Z,20.62
2019-05-18T07:07:19.238Z,20.21
2019-05-18T07:09:45.197Z,20.25
2019-05-18T07:12:11.220Z,20.49
2019-05-18T07:14:37.163Z,20.51
2019-05-18T07:17:03.170Z,19.92
2019-05-18T07:19:29.247Z,19.00
2019-05-18T07:21:55.192Z,18.54
2019-05-18T07:24:21.103Z,18.41
2019-05-18T07:26:47.054Z,18.69
2019-05-18T07:29:13.373Z,19.78
2019-05-18T07:31:39.451Z,20.45
2019-05-18T07:34:05.364Z,20.49
2019-05-18T07:36:31.314Z,20.52
2019-05-18T07:38:57.226Z,20.67
2019-05-18T07:41:23.266Z,20.64
2019-05-18T07:43:49.177Z,20.56
2019-05-18T07:46:15.122Z,20.68
2019-05-18T07:48:41.494Z,20.73
2019-05-18T07:51:07.715Z,20.68
2019-05-18T07:53:33.643Z,20.83
2019-05-18T07:55:59.615Z,20.92
2019-05-18T07:58:25.937Z,20.38
2019-05-18T08:00:52.894Z,19.70
2019-05-18T08:03:18.844Z,20.20
2019-05-18T08:05:44.980Z,19.29
2019-05-18T08:08:10.894Z,19.86
2019-05-18T08:10:37.146Z,20.21
2019-05-18T08:13:03.759Z,20.66
2019-05-18T08:15:29.879Z,20.79
2019-05-18T08:17:55.794Z,21.23
2019-05-18T08:20:21.754Z,20.56
2019-05-18T08:22:47.891Z,20.27
2019-05-18T08:25:14.095Z,20.22
2019-05-18T08:27:40.188Z,19.49
2019-05-18T08:30:06.504Z,18.94
2019-05-18T08:32:32.477Z,18.88
2019-05-18T08:34:58.610Z,18.74
2019-05-18T08:37:24.566Z,18.64
2019-05-18T08:39:51.787Z,18.43
2019-05-18T08:42:17.806Z,19.01
2019-05-18T08:44:43.882Z,19.73
2019-05-18T08:47:09.830Z,19.23
2019-05-18T08:49:36.105Z,18.64
2019-05-18T08:52:08.235Z,19.30
2019-05-18T08:54:30.335Z,19.13
2019-05-18T08:56:57.414Z,18.97
2019-05-18T08:59:23.326Z,19.67
2019-05-18T09:01:49.568Z,19.89
2019-05-18T09:04:15.462Z,19.15
2019-05-18T09:06:41.608Z,19.33
2019-05-18T09:09:07.601Z,19.55
2019-05-18T09:11:33.647Z,19.95
2019-05-18T09:14:00.040Z,19.71
2019-05-18T09:16:25.984Z,20.14
2019-05-18T09:18:52.085Z,20.02
2019-05-18T09:21:18.186Z,20.41
2019-05-18T09:23:44.087Z,20.74
2019-05-18T09:26:10.210Z,21.26
2019-05-18T09:28:36.236Z,21.09
2019-05-18T09:31:02.384Z,20.64
2019-05-18T09:33:28.283Z,20.82
2019-05-18T09:35:55.535Z,20.19
2019-05-18T09:38:22.008Z,20.82
2019-05-18T09:40:48.085Z,21.40
2019-05-18T09:43:14.265Z,21.57
2019-05-18T09:45:40.253Z,21.99
2019-05-18T09:48:06.501Z,21.62
2019-05-18T09:50:32.715Z,21.20
2019-05-18T09:52:58.663Z,20.78
2019-05-18T09:55:24.673Z,20.66
2019-05-18T09:57:50.649Z,21.14
2019-05-18T10:00:18.978Z,21.73
2019-05-18T10:02:45.011Z,21.85
2019-05-18T10:05:11.439Z,21.68
2019-05-18T10:07:37.635Z,21.69
2019-05-18T10:10:05.752Z,21.77
2019-05-18T10:12:32.131Z,21.93
2019-05-18T10:14:58.184Z,22.25
2019-05-18T10:17:24.491Z,22.53
2019-05-18T10:19:50.399Z,22.44
2019-05-18T10:22:16.345Z,22.01
2019-05-18T10:24:42.336Z,21.81
2019-05-18T10:27:08.456Z,22.22
2019-05-18T10:29:34.424Z,22.66
2019-05-18T10:32:00.619Z,22.78
2019-05-18T10:34:26.628Z,22.25
2019-05-18T10:36:52.566Z,22.18
2019-05-18T10:39:18.473Z,22.13
2019-05-18T10:41:44.423Z,21.67
2019-05-18T10:44:10.557Z,22.08
2019-05-18T10:46:36.614Z,22.59
2019-05-18T10:49:03.194Z,22.95
2019-05-18T10:51:29.134Z,23.14
2019-05-18T10:53:55.158Z,23.33
2019-05-18T10:56:21.329Z,22.97
2019-05-18T10:58:47.233Z,23.08
2019-05-18T11:01:13.327Z,23.04
2019-05-18T11:03:39.234Z,22.78
2019-05-18T11:06:05.639Z,22.81
2019-05-18T11:08:31.610Z,22.93
2019-05-18T11:10:57.740Z,23.23
2019-05-18T11:13:23.784Z,23.63
2019-05-18T11:15:49.701Z,23.53
2019-05-18T11:18:15.775Z,23.40
2019-05-18T11:20:41.704Z,23.57
2019-05-18T11:23:07.633Z,23.40
2019-05-18T11:25:33.558Z,23.20
2019-05-18T11:27:59.705Z,23.35
2019-05-18T11:30:25.819Z,23.47
2019-05-18T11:32:51.997Z,23.46
2019-05-18T11:35:18.908Z,23.02
2019-05-18T11:37:44.966Z,22.84
2019-05-18T11:40:11.506Z,23.28
2019-05-18T11:42:37.498Z,23.48
2019-05-18T11:45:09.174Z,23.22
2019-05-18T11:47:35.217Z,22.76
2019-05-18T11:50:01.277Z,22.73
2019-05-18T11:52:27.297Z,22.91
2019-05-18T11:54:53.179Z,22.90
2019-05-18T11:57:19.261Z,23.18
2019-05-18T11:59:45.180Z,23.44
2019-05-18T12:02:11.258Z,23.03
2019-05-18T12:04:37.289Z,23.40
2019-05-18T12:07:03.872Z,23.76
2019-05-18T12:09:29.926Z,23.60
2019-05-18T12:11:55.825Z,23.51
2019-05-18T12:14:22.386Z,23.47
2019-05-18T12:16:48.528Z,23.49
2019-05-18T12:19:14.623Z,23.61
2019-05-18T12:21:41.766Z,23.61
2019-05-18T12:24:15.311Z,23.77
2019-05-18T12:26:35.622Z,23.53
2019-05-18T12:29:01.747Z,23.38
2019-05-18T12:31:27.887Z,23.35
2019-05-18T12:33:53.883Z,23.21
2019-05-18T12:36:19.935Z,23.21
2019-05-18T12:38:46.944Z,23.22
2019-05-18T12:41:12.983Z,23.52
2019-05-18T12:43:38.987Z,23.82
2019-05-18T12:46:04.945Z,23.91
2019-05-18T12:48:30.851Z,23.59
2019-05-18T12:50:56.894Z,23.82
2019-05-18T12:53:22.834Z,23.98
2019-05-18T12:55:48.774Z,24.18
2019-05-18T12:58:14.861Z,24.22
2019-05-18T13:00:40.873Z,24.07
2019-05-18T13:03:06.962Z,23.89
2019-05-18T13:05:33.054Z,24.32
2019-05-18T13:07:59.283Z,24.31
2019-05-18T13:10:25.205Z,24.52
2019-05-18T13:12:51.116Z,24.25
2019-05-18T13:15:17.692Z,23.87
2019-05-18T13:17:43.782Z,23.73
2019-05-18T13:20:11.803Z,23.60
2019-05-18T13:22:38.079Z,24.01
2019-05-18T13:25:04.738Z,24.05
2019-05-18T13:27:39.303Z,24.26
2019-05-18T13:29:58.708Z,24.35
2019-05-18T13:32:24.692Z,24.36
2019-05-18T13:34:50.778Z,24.48
2019-05-18T13:37:16.767Z,24.52
2019-05-18T13:39:42.709Z,24.16
2019-05-18T13:42:08.611Z,24.19
2019-05-18T13:44:34.558Z,24.12
2019-05-18T13:47:00.466Z,24.20
2019-05-18T13:49:26.422Z,23.67
2019-05-18T13:51:52.325Z,23.93
2019-05-18T13:54:18.272Z,24.30
2019-05-18T13:56:44.334Z,24.30
2019-05-18T13:59:10.285Z,24.52
2019-05-18T14:01:36.194Z,24.59
2019-05-18T14:04:02.277Z,24.42
2019-05-18T14:06:28.194Z,24.66
2019-05-18T14:08:54.239Z,24.86
2019-05-18T14:11:20.245Z,24.59
2019-05-18T14:13:46.210Z,24.64
2019-05-18T14:16:12.251Z,24.44
2019-05-18T14:18:38.210Z,23.54
2019-05-18T14:21:04.366Z,23.76
2019-05-18T14:23:30.279Z,23.73
2019-05-18T14:25:56.475Z,23.97
2019-05-18T14:28:22.616Z,23.87
2019-05-18T14:30:48.782Z,23.85
2019-05-18T14:33:15.834Z,23.78
2019-05-18T14:35:41.887Z,23.54
2019-05-18T14:38:09.201Z,23.96
2019-05-18T14:40:35.317Z,24.12
2019-05-18T14:43:01.367Z,24.18
2019-05-18T14:45:28.727Z,23.92
2019-05-18T14:47:54.834Z,24.12
2019-05-18T14:50:21.445Z,23.87
2019-05-18T14:52:47.492Z,23.69
2019-05-18T14:55:13.867Z,23.76
2019-05-18T14:57:39.775Z,23.72
2019-05-18T15:00:06.889Z,23.92
2019-05-18T15:02:32.847Z,23.88
2019-05-18T15:04:58.768Z,23.87
2019-05-18T15:07:25.045Z,24.21
2019-05-18T15:09:51.143Z,24.08
2019-05-18T15:12:17.287Z,24.11
2019-05-18T15:14:43.601Z,24.13
2019-05-18T15:17:10.739Z,24.22
2019-05-18T15:19:36.691Z,24.08
2019-05-18T15:22:02.924Z,23.98
2019-05-18T15:24:28.821Z,23.91
2019-05-18T15:26:54.767Z,24.38
2019-05-18T15:29:20.701Z,24.32
2019-05-18T15:31:46.809Z,24.22
2019-05-18T15:34:12.837Z,24.07
2019-05-18T15:36:38.794Z,23.72
2019-05-18T15:39:05.494Z,23.81
2019-05-18T15:41:31.541Z,23.97
2019-05-18T15:43:57.674Z,23.94
2019-05-18T15:46:23.621Z,23.78
2019-05-18T15:48:49.932Z,23.49
2019-05-18T15:51:16.026Z,23.50
2019-05-18T15:53:42.273Z,23.28
2019-05-18T15:56:08.314Z,23.58
2019-05-18T15:58:34.356Z,23.66
2019-05-18T16:01:00.401Z,23.66
2019-05-18T16:03:26.519Z,23.58
2019-05-18T16:08:18.687Z,23.15
2019-05-18T16:10:44.886Z,23.12
2019-05-18T16:13:10.935Z,23.23
2019-05-18T16:15:36.882Z,23.37
2019-05-18T16:18:04.198Z,23.52
2019-05-18T16:20:30.170Z,23.32
2019-05-18T16:22:56.363Z,23.39
2019-05-18T16:25:22.370Z,23.44
2019-05-18T16:27:48.330Z,23.67
2019-05-18T16:30:15.041Z,23.43
2019-05-18T16:32:41.229Z,23.41
2019-05-18T16:35:07.641Z,22.86
2019-05-18T16:37:33.827Z,22.60
2019-05-18T16:39:59.841Z,22.50
2019-05-18T16:42:26.445Z,22.26
2019-05-18T16:44:52.359Z,22.28
2019-05-18T16:47:18.314Z,22.48
2019-05-18T16:49:44.332Z,22.51
2019-05-18T16:52:10.277Z,22.35
2019-05-18T16:54:36.290Z,22.45
2019-05-18T16:57:02.403Z,22.46
2019-05-18T16:59:28.359Z,22.40
2019-05-18T17:01:55.362Z,22.38
2019-05-18T17:04:21.382Z,22.31
2019-05-18T17:06:47.888Z,22.24
2019-05-18T17:09:14.407Z,22.09
2019-05-18T17:11:40.352Z,22.19
2019-05-18T17:14:06.289Z,22.20
2019-05-18T17:16:32.250Z,22.06
2019-05-18T17:18:58.287Z,21.92
2019-05-18T17:21:24.198Z,21.76
2019-05-18T17:23:53.395Z,21.83
2019-05-18T17:26:18.181Z,21.61
2019-05-18T17:28:44.144Z,21.70
2019-05-18T17:31:10.043Z,21.36
2019-05-18T17:33:35.977Z,21.23
2019-05-18T17:36:01.922Z,21.29
2019-05-18T17:38:29.032Z,21.26
2019-05-18T17:40:54.943Z,21.48
2019-05-18T17:43:20.898Z,21.31
2019-05-18T17:45:46.927Z,21.25
2019-05-18T17:48:13.038Z,21.23
2019-05-18T17:50:39.087Z,21.18
2019-05-18T17:53:05.097Z,21.26
2019-05-18T17:55:31.136Z,21.15
2019-05-18T17:57:57.343Z,21.08
2019-05-18T18:00:23.400Z,21.03
2019-05-18T18:02:49.332Z,20.84
2019-05-18T18:05:15.471Z,20.87
2019-05-18T18:07:41.644Z,20.69
2019-05-18T18:10:08.428Z,20.56
2019-05-18T18:12:34.443Z,20.67
2019-05-18T18:15:00.379Z,20.59
2019-05-18T18:17:26.399Z,20.54
2019-05-18T18:19:52.558Z,20.50
2019-05-18T18:22:18.558Z,20.46
2019-05-18T18:24:44.709Z,20.33
2019-05-18T18:27:24.121Z,20.20
2019-05-18T18:29:38.729Z,20.00
2019-05-18T18:32:04.740Z,19.78
2019-05-18T18:34:30.882Z,19.68
2019-05-18T18:36:56.834Z,19.66
2019-05-18T18:39:23.772Z,19.40
2019-05-18T18:41:50.008Z,19.24
2019-05-18T18:44:15.945Z,19.19
2019-05-18T18:46:41.968Z,19.12
2019-05-18T18:49:07.935Z,19.09
2019-05-18T18:51:33.852Z,19.04
2019-05-18T18:54:01.156Z,18.80
2019-05-18T18:56:28.301Z,18.43
2019-05-18T18:58:54.847Z,18.36
2019-05-18T19:01:20.991Z,18.11
2019-05-18T19:03:46.936Z,18.10
2019-05-18T19:06:12.970Z,17.95
2019-05-18T19:08:38.906Z,17.73
2019-05-18T19:11:05.125Z,17.74
2019-05-18T19:13:31.268Z,17.68
2019-05-18T19:15:57.267Z,17.69
2019-05-18T19:18:23.218Z,17.61
2019-05-18T19:20:49.272Z,17.65
2019-05-18T19:23:15.219Z,17.59
2019-05-18T19:25:41.253Z,17.51
2019-05-18T19:28:07.517Z,17.53
2019-05-18T19:30:33.515Z,17.51
2019-05-18T19:32:59.488Z,17.47
2019-05-18T19:35:25.429Z,17.27
2019-05-18T19:37:51.921Z,17.22
2019-05-18T19:40:18.247Z,17.23
2019-05-18T19:42:44.165Z,17.25
2019-05-18T19:45:10.576Z,17.15
2019-05-18T19:47:36.933Z,16.94
2019-05-18T19:50:05.424Z,16.84
2019-05-18T19:52:31.325Z,16.85
2019-05-18T19:54:57.680Z,16.77
2019-05-18T19:57:23.669Z,16.67
2019-05-18T19:59:49.591Z,16.62
2019-05-18T20:02:18.314Z,16.50
2019-05-18T20:04:43.493Z,16.47
2019-05-18T20:07:09.586Z,16.57
2019-05-18T20:09:35.647Z,16.44
2019-05-18T20:12:01.657Z,16.41
2019-05-18T20:14:27.703Z,16.57
2019-05-18T20:16:53.709Z,16.29
2019-05-18T20:19:19.754Z,16.31
2019-05-18T20:21:45.786Z,16.56
2019-05-18T20:24:11.731Z,16.61
2019-05-18T20:26:38.737Z,16.65
2019-05-18T20:29:04.887Z,16.77
2019-05-18T20:31:30.792Z,16.69
2019-05-18T20:33:57.941Z,16.61
2019-05-18T20:36:23.912Z,16.62
2019-05-18T20:38:50.188Z,16.52
2019-05-18T20:41:16.090Z,16.49
2019-05-18T20:43:43.180Z,16.20
2019-05-18T20:46:09.085Z,16.34
2019-05-18T20:48:35.033Z,16.61
2019-05-18T20:51:01.033Z,16.50
2019-05-18T20:53:26.988Z,16.60
2019-05-18T20:55:53.160Z,16.63
2019-05-18T20:58:19.115Z,16.45
2019-05-18T21:00:45.211Z,16.34
2019-05-18T21:03:11.167Z,16.32
2019-05-18T21:05:37.189Z,16.19
2019-05-18T21:08:03.494Z,16.11
2019-05-18T21:10:29.689Z,16.07
2019-05-18T21:12:55.601Z,15.97
2019-05-18T21:15:21.747Z,15.88
2019-05-18T21:17:48.294Z,15.81
2019-05-18T21:20:14.518Z,15.77
2019-05-18T21:22:40.437Z,15.58
2019-05-18T21:25:06.786Z,15.54
2019-05-18T21:27:32.747Z,15.73
2019-05-18T21:29:58.653Z,15.69
2019-05-18T21:32:25.702Z,15.62
2019-05-18T21:34:51.738Z,15.71
2019-05-18T21:37:17.712Z,15.48
2019-05-18T21:39:43.701Z,15.40
2019-05-18T21:42:09.674Z,15.19
2019-05-18T21:44:35.814Z,15.10
2019-05-18T21:47:01.821Z,15.09
2019-05-18T21:49:27.725Z,15.09
2019-05-18T21:51:53.818Z,15.01
2019-05-18T21:54:19.738Z,14.95
2019-05-18T21:56:45.646Z,15.00
2019-05-18T21:59:12.620Z,15.28
2019-05-18T22:01:38.726Z,15.29
2019-05-18T22:04:04.947Z,15.10
2019-05-18T22:06:30.967Z,15.10
2019-05-18T22:08:56.945Z,15.01
2019-05-18T22:11:22.955Z,14.98
2019-05-18T22:13:50.069Z,14.88
2019-05-18T22:16:15.986Z,14.70
2019-05-18T22:18:42.059Z,14.70
2019-05-18T22:21:08.052Z,14.76
2019-05-18T22:23:34.027Z,14.79
2019-05-18T22:25:59.971Z,14.79
2019-05-18T22:28:25.921Z,14.72
2019-05-18T22:30:51.851Z,14.73
2019-05-18T22:33:17.902Z,14.59
2019-05-18T22:35:43.816Z,14.44
2019-05-18T22:38:09.755Z,14.61
2019-05-18T22:40:35.661Z,14.32
2019-05-18T22:43:01.602Z,14.09
2019-05-18T22:45:27.659Z,14.06
2019-05-18T22:47:54.763Z,13.98
2019-05-18T22:50:20.986Z,14.03
2019-05-18T22:52:47.003Z,13.96
2019-05-18T22:55:13.198Z,14.09
2019-05-18T22:57:40.420Z,14.19
2019-05-18T23:00:06.841Z,14.32
2019-05-18T23:02:34.822Z,14.29
2019-05-18T23:05:00.918Z,14.35
2019-05-18T23:07:26.866Z,14.26
2019-05-18T23:09:52.806Z,14.40
2019-05-18T23:12:18.724Z,13.94
2019-05-18T23:14:44.628Z,13.81
2019-05-18T23:17:10.579Z,13.79
2019-05-18T23:19:36.506Z,14.03
2019-05-18T23:24:40.138Z,14.26
2019-05-18T23:27:06.099Z,13.91
2019-05-18T23:29:32.124Z,13.70
2019-05-18T23:31:58.074Z,13.56
2019-05-18T23:34:24.302Z,13.30
2019-05-18T23:36:50.240Z,13.42
2019-05-18T23:39:16.184Z,13.59
2019-05-18T23:41:42.097Z,13.65
2019-05-18T23:44:08.029Z,13.53
2019-05-18T23:46:33.935Z,13.38
2019-05-18T23:49:10.465Z,13.22
2019-05-18T23:51:28.792Z,12.94
2019-05-18T23:53:54.710Z,13.18
2019-05-18T23:56:21.798Z,13.45
2019-05-18T23:58:47.709Z,13.41
